Nepaug, Connecticut
Current Conditions -  °F | °C
As of 11:51 PM on Monday 20 Oct 2014 (Local Time) from KBDL Reporting Station
Overcast Overcast  
Wind Chill: 47°   Ceiling: 17000
Heat Index: 47°   Visibility: 10mi
Dew Point: 40°   Wind: 0mph
Humidity: 77%   Direction: NA
Pressure: 29.97"   Gusts: NA
Location:  41.8531°N, 73.0043°W
Report Text: KBDL 210351Z 00000KT 10SM BKN170 OVC210 08/04 A2997 RMK AO2 SLP150 T00830044
Loading
Personal Weather Stations






























Interactive Weather Map
Tropical Storm Tracking
New forecast layout! Learn more

10-Day Weather Forecast

Advertisements
Track Severe Weather on mobile